createdAt,value
2023-01-21T00:01:05.721Z,63
2023-01-21T00:16:06.156Z,57
2023-01-21T00:31:05.531Z,48
2023-01-21T00:46:05.776Z,51
2023-01-21T01:01:06.129Z,47
2023-01-21T01:16:05.333Z,34
2023-01-21T01:31:05.946Z,34
2023-01-21T01:46:05.071Z,36
2023-01-21T02:01:05.271Z,36
2023-01-21T02:16:05.373Z,35
2023-01-21T02:31:05.395Z,34
2023-01-21T02:46:05.336Z,35
2023-01-21T03:01:05.492Z,31
2023-01-21T03:16:04.839Z,27
2023-01-21T03:31:04.852Z,25
2023-01-21T03:46:04.935Z,26
2023-01-21T04:01:04.700Z,26
2023-01-21T04:16:05.744Z,20
2023-01-21T04:31:05.705Z,19
2023-01-21T04:46:05.805Z,23
2023-01-21T05:01:05.873Z,24
2023-01-21T05:16:06.067Z,23
2023-01-21T05:31:05.505Z,19
2023-01-21T05:46:05.174Z,18
2023-01-21T06:01:05.048Z,17
2023-01-21T06:16:05.205Z,18
2023-01-21T06:31:05.368Z,15
2023-01-21T06:46:05.736Z,19
2023-01-21T07:01:05.142Z,20
2023-01-21T07:16:07.419Z,23
2023-01-21T07:31:04.954Z,30
2023-01-21T07:46:05.204Z,28
2023-01-21T08:01:04.396Z,31
2023-01-21T08:16:04.911Z,28
2023-01-21T08:31:05.060Z,30
2023-01-21T08:46:05.562Z,31
2023-01-21T09:01:05.069Z,29
2023-01-21T09:16:05.362Z,33
2023-01-21T09:31:05.671Z,43
2023-01-21T09:46:04.918Z,58
2023-01-21T10:01:05.281Z,53
2023-01-21T10:16:04.999Z,32
2023-01-21T10:31:05.284Z,31
2023-01-21T10:46:05.663Z,28
2023-01-21T11:01:04.919Z,40
2023-01-21T11:16:05.144Z,31
2023-01-21T11:31:05.362Z,27
2023-01-21T11:46:05.532Z,28
2023-01-21T12:01:05.459Z,43
2023-01-21T12:16:06.087Z,26
2023-01-21T12:31:05.880Z,26
2023-01-21T12:46:05.522Z,25
2023-01-21T13:01:05.007Z,27
2023-01-21T13:16:05.499Z,45
2023-01-21T13:31:06.190Z,26
2023-01-21T13:46:05.880Z,25
2023-01-21T14:01:05.616Z,24
2023-01-21T14:16:05.521Z,29
2023-01-21T14:31:06.052Z,28
2023-01-21T14:46:05.609Z,27
2023-01-21T15:01:05.275Z,31
2023-01-21T15:16:05.627Z,51
2023-01-21T15:31:05.297Z,41
2023-01-21T15:46:05.587Z,37
2023-01-21T16:01:05.166Z,39
2023-01-21T16:16:05.072Z,46
2023-01-21T16:31:05.394Z,51
2023-01-21T16:46:06.111Z,63
2023-01-21T17:01:06.696Z,75
2023-01-21T17:16:06.073Z,69
2023-01-21T17:31:05.884Z,68
2023-01-21T17:46:05.572Z,71
2023-01-21T18:01:05.596Z,70
2023-01-21T18:16:05.377Z,67
2023-01-21T18:31:05.172Z,79
2023-01-21T18:46:05.908Z,76
2023-01-21T19:01:22.878Z,82
2023-01-21T19:16:05.527Z,88
2023-01-21T19:31:05.920Z,81
2023-01-21T19:46:05.134Z,100
2023-01-21T20:01:06.197Z,97
2023-01-21T20:16:05.219Z,86
2023-01-21T20:31:05.126Z,99
2023-01-21T20:46:05.534Z,140
2023-01-21T21:01:05.947Z,174
2023-01-21T21:16:05.334Z,198
2023-01-21T21:31:05.087Z,220
2023-01-21T21:46:04.878Z,211
2023-01-21T22:01:04.830Z,191
2023-01-21T22:16:04.895Z,206
2023-01-21T22:31:05.527Z,216
2023-01-21T22:46:05.010Z,213
2023-01-21T23:01:05.226Z,180
2023-01-21T23:16:05.503Z,188
2023-01-21T23:31:04.994Z,224
2023-01-21T23:46:05.691Z,222
